createdAt,value
2022-09-09T00:02:18.902Z,15.80
2022-09-09T00:05:00.196Z,15.80
2022-09-09T00:07:51.782Z,15.80
2022-09-09T00:10:32.855Z,15.80
2022-09-09T00:13:25.010Z,15.80
2022-09-09T00:16:00.541Z,15.80
2022-09-09T00:18:37.946Z,15.80
2022-09-09T00:21:18.833Z,15.80
2022-09-09T00:23:51.793Z,15.80
2022-09-09T00:26:31.332Z,15.80
2022-09-09T00:29:13.343Z,15.80
2022-09-09T00:31:40.770Z,15.80
2022-09-09T00:34:14.443Z,15.90
2022-09-09T00:36:42.899Z,15.90
2022-09-09T00:39:26.389Z,15.90
2022-09-09T00:42:16.669Z,16.00
2022-09-09T00:44:59.476Z,16.00
2022-09-09T00:47:54.793Z,16.00
2022-09-09T00:50:53.913Z,16.00
2022-09-09T00:53:23.681Z,15.90
2022-09-09T00:56:02.812Z,15.90
2022-09-09T00:58:30.055Z,15.90
2022-09-09T01:01:09.257Z,15.80
2022-09-09T01:03:46.617Z,15.80
2022-09-09T01:06:30.483Z,15.80
2022-09-09T01:09:22.223Z,15.70
2022-09-09T01:12:12.757Z,15.70
2022-09-09T01:14:48.766Z,15.70
2022-09-09T01:17:52.641Z,15.60
2022-09-09T01:20:50.506Z,15.60
2022-09-09T01:23:26.581Z,15.60
2022-09-09T01:26:33.935Z,15.50
2022-09-09T01:29:10.003Z,15.50
2022-09-09T01:31:42.340Z,15.50
2022-09-09T01:34:14.787Z,15.40
2022-09-09T01:36:53.973Z,15.40
2022-09-09T01:39:21.893Z,15.40
2022-09-09T01:41:57.222Z,15.40
2022-09-09T01:44:25.542Z,15.30
2022-09-09T01:46:52.524Z,15.30
2022-09-09T01:49:22.038Z,15.30
2022-09-09T01:51:57.350Z,15.30
2022-09-09T01:54:36.799Z,15.30
2022-09-09T01:57:24.176Z,15.20
2022-09-09T02:00:02.154Z,15.20
2022-09-09T02:02:53.680Z,15.20
2022-09-09T02:05:43.123Z,15.10
2022-09-09T02:08:27.337Z,15.10
2022-09-09T02:11:08.004Z,15.10
2022-09-09T02:13:47.200Z,15.10
2022-09-09T02:16:29.991Z,15.00
2022-09-09T02:19:13.808Z,15.00
2022-09-09T02:21:58.617Z,15.00
2022-09-09T02:24:29.217Z,14.90
2022-09-09T02:27:10.355Z,15.00
2022-09-09T02:29:42.343Z,14.90
2022-09-09T02:32:18.400Z,14.90
2022-09-09T02:34:52.662Z,14.90
2022-09-09T02:37:22.812Z,14.90
2022-09-09T02:39:53.497Z,14.80
2022-09-09T02:42:22.844Z,14.80
2022-09-09T02:44:51.753Z,14.80
2022-09-09T02:47:39.240Z,14.80
2022-09-09T02:50:27.006Z,14.80
2022-09-09T02:53:12.701Z,14.70
2022-09-09T02:55:51.281Z,14.70
2022-09-09T02:58:21.963Z,14.70
2022-09-09T03:01:02.195Z,14.60
2022-09-09T03:03:31.332Z,14.60
2022-09-09T03:06:00.142Z,14.60
2022-09-09T03:08:28.730Z,14.60
2022-09-09T03:11:02.119Z,14.60
2022-09-09T03:13:31.643Z,14.60
2022-09-09T03:15:58.573Z,14.60
2022-09-09T03:18:26.561Z,14.60
2022-09-09T03:20:55.066Z,14.50
2022-09-09T03:23:22.907Z,14.60
2022-09-09T03:25:51.150Z,14.60
2022-09-09T03:28:22.109Z,14.60
2022-09-09T03:30:50.613Z,14.50
2022-09-09T03:33:18.777Z,14.50
2022-09-09T03:35:49.657Z,14.50
2022-09-09T03:38:18.925Z,14.50
2022-09-09T03:40:58.153Z,14.50
2022-09-09T03:43:26.654Z,14.50
2022-09-09T03:45:57.797Z,14.50
2022-09-09T03:48:29.036Z,14.50
2022-09-09T03:50:58.897Z,14.50
2022-09-09T03:53:26.693Z,14.60
2022-09-09T03:55:55.943Z,14.50
2022-09-09T03:58:25.303Z,14.60
2022-09-09T04:01:02.257Z,14.60
2022-09-09T04:03:30.222Z,14.70
2022-09-09T04:05:59.286Z,14.70
2022-09-09T04:08:28.927Z,14.70
2022-09-09T04:10:58.977Z,14.80
2022-09-09T04:13:27.551Z,14.80
2022-09-09T04:15:58.590Z,14.80
2022-09-09T04:18:27.023Z,14.90
2022-09-09T04:20:54.856Z,14.90
2022-09-09T04:23:26.548Z,14.90
2022-09-09T04:25:55.104Z,15.00
2022-09-09T04:28:24.594Z,15.00
2022-09-09T04:30:53.281Z,15.00
2022-09-09T04:33:20.860Z,15.00
2022-09-09T04:35:53.887Z,15.10
2022-09-09T04:38:24.010Z,15.10
2022-09-09T04:40:52.913Z,15.10
2022-09-09T04:43:20.089Z,15.10
2022-09-09T04:45:52.367Z,15.10
2022-09-09T04:48:22.379Z,15.20
2022-09-09T04:51:02.289Z,15.20
2022-09-09T04:53:30.260Z,15.20
2022-09-09T04:56:08.772Z,15.20
2022-09-09T04:58:43.919Z,15.20
2022-09-09T05:01:19.876Z,15.20
2022-09-09T05:03:53.119Z,15.20
2022-09-09T05:06:23.490Z,15.20
2022-09-09T05:08:55.591Z,15.30
2022-09-09T05:11:30.938Z,15.30
2022-09-09T05:14:02.233Z,15.30
2022-09-09T05:16:31.745Z,15.40
2022-09-09T05:19:00.088Z,15.40
2022-09-09T05:21:33.721Z,15.40
2022-09-09T05:24:01.586Z,15.40
2022-09-09T05:26:30.425Z,15.50
2022-09-09T05:29:00.017Z,15.50
2022-09-09T05:31:31.359Z,15.50
2022-09-09T05:34:01.169Z,15.50
2022-09-09T05:36:28.268Z,15.60
2022-09-09T05:38:56.986Z,15.60
2022-09-09T05:41:26.143Z,15.60
2022-09-09T05:43:55.861Z,15.70
2022-09-09T05:46:26.020Z,15.70
2022-09-09T05:48:54.856Z,15.70
2022-09-09T05:51:31.218Z,15.70
2022-09-09T05:54:00.248Z,15.70
2022-09-09T05:56:31.069Z,15.70
2022-09-09T05:59:01.175Z,15.70
2022-09-09T06:01:31.896Z,15.70
2022-09-09T06:03:59.837Z,15.70
2022-09-09T06:06:38.147Z,15.70
2022-09-09T06:09:11.444Z,15.80
2022-09-09T06:11:41.513Z,15.80
2022-09-09T06:14:09.693Z,15.80
2022-09-09T06:16:45.057Z,15.90
2022-09-09T06:19:19.599Z,16.00
2022-09-09T06:21:48.569Z,16.00
2022-09-09T06:24:20.328Z,16.10
2022-09-09T06:26:48.558Z,16.20
2022-09-09T06:29:23.096Z,16.20
2022-09-09T06:31:51.963Z,16.30
2022-09-09T06:34:22.781Z,16.40
2022-09-09T06:37:00.977Z,16.40
2022-09-09T06:39:35.767Z,16.50
2022-09-09T06:42:03.406Z,16.50
2022-09-09T06:44:49.186Z,16.40
2022-09-09T06:47:26.528Z,16.40
2022-09-09T06:49:55.320Z,16.30
2022-09-09T06:52:22.337Z,16.30
2022-09-09T06:54:50.904Z,16.40
2022-09-09T06:57:36.398Z,16.40
2022-09-09T07:00:07.384Z,16.50
2022-09-09T07:02:39.910Z,16.50
2022-09-09T07:05:09.387Z,16.60
2022-09-09T07:07:37.723Z,16.70
2022-09-09T07:10:05.906Z,16.80
2022-09-09T07:12:33.772Z,16.90
2022-09-09T07:15:01.496Z,17.00
2022-09-09T07:17:30.056Z,17.00
2022-09-09T07:19:58.397Z,17.10
2022-09-09T07:22:26.450Z,17.20
2022-09-09T07:24:53.917Z,17.20
2022-09-09T07:27:20.992Z,17.10
2022-09-09T07:29:49.693Z,17.20
2022-09-09T07:32:17.768Z,17.20
2022-09-09T07:34:44.726Z,17.20
2022-09-09T07:37:13.756Z,17.30
2022-09-09T07:39:43.792Z,17.30
2022-09-09T07:42:12.719Z,17.30
2022-09-09T07:44:40.785Z,17.40
2022-09-09T07:47:13.948Z,17.50
2022-09-09T07:49:47.229Z,17.50
2022-09-09T07:52:19.672Z,17.70
2022-09-09T07:54:50.831Z,17.80
2022-09-09T07:57:22.061Z,17.90
2022-09-09T07:59:49.087Z,17.90
2022-09-09T08:02:16.013Z,17.90
2022-09-09T08:04:42.988Z,17.90
2022-09-09T08:07:11.656Z,17.90
2022-09-09T08:09:45.518Z,18.00
2022-09-09T08:12:24.321Z,18.10
2022-09-09T08:14:52.684Z,18.20
2022-09-09T08:17:23.161Z,18.10
2022-09-09T08:19:51.221Z,18.10
2022-09-09T08:22:23.216Z,18.00
2022-09-09T08:24:50.982Z,17.90
2022-09-09T08:27:19.209Z,17.90
2022-09-09T08:29:46.163Z,17.90
2022-09-09T08:32:14.481Z,17.90
2022-09-09T08:34:46.737Z,18.00
2022-09-09T08:37:18.763Z,18.00
2022-09-09T08:39:45.845Z,18.00
2022-09-09T08:42:24.702Z,18.00
2022-09-09T08:45:15.660Z,17.90
2022-09-09T08:47:58.126Z,17.90
2022-09-09T08:50:34.929Z,17.90
2022-09-09T08:53:09.374Z,17.90
2022-09-09T08:55:49.174Z,17.90
2022-09-09T08:58:44.985Z,18.00
2022-09-09T09:01:49.895Z,18.00
2022-09-09T09:04:38.510Z,18.00
2022-09-09T09:07:06.121Z,18.00
2022-09-09T09:10:05.050Z,18.10
2022-09-09T09:12:42.615Z,18.20
2022-09-09T09:15:22.239Z,18.20
2022-09-09T09:17:51.289Z,18.30
2022-09-09T09:20:42.662Z,18.40
2022-09-09T09:23:22.102Z,18.40
2022-09-09T09:25:52.519Z,18.40
2022-09-09T09:28:23.120Z,18.40
2022-09-09T09:31:08.034Z,18.50
2022-09-09T09:33:50.562Z,18.40
2022-09-09T09:36:20.239Z,18.40
2022-09-09T09:41:46.737Z,18.20
2022-09-09T09:44:30.064Z,18.20
2022-09-09T09:47:23.448Z,18.40
2022-09-09T09:50:02.127Z,18.50
2022-09-09T09:52:35.985Z,18.60
2022-09-09T09:55:08.308Z,18.70
2022-09-09T09:57:36.098Z,18.90
2022-09-09T10:00:15.775Z,19.00
2022-09-09T10:02:45.083Z,19.10
2022-09-09T10:05:26.521Z,19.20
2022-09-09T10:08:13.992Z,19.20
2022-09-09T10:10:48.146Z,19.10
2022-09-09T10:13:34.449Z,19.00
2022-09-09T10:16:05.454Z,19.00
2022-09-09T10:19:08.020Z,18.90
2022-09-09T10:21:49.911Z,18.80
2022-09-09T10:24:42.471Z,18.70
2022-09-09T10:27:24.511Z,18.70
2022-09-09T10:29:57.165Z,18.60
2022-09-09T10:32:43.036Z,18.60
2022-09-09T10:35:30.283Z,18.70
2022-09-09T10:38:18.098Z,18.80
2022-09-09T10:40:52.411Z,18.90
2022-09-09T10:43:47.097Z,19.00
2022-09-09T10:46:33.561Z,19.00
2022-09-09T10:49:01.087Z,19.00
2022-09-09T10:51:57.525Z,19.00
2022-09-09T10:54:56.129Z,18.90
2022-09-09T10:57:31.709Z,18.80
2022-09-09T11:00:04.977Z,18.70
2022-09-09T11:02:34.497Z,18.70
2022-09-09T11:05:30.047Z,18.80
2022-09-09T11:08:05.889Z,18.80
2022-09-09T11:10:40.249Z,18.90
2022-09-09T11:13:21.831Z,18.90
2022-09-09T11:15:53.113Z,18.90
2022-09-09T11:18:24.642Z,18.90
2022-09-09T11:20:57.726Z,18.90
2022-09-09T11:23:42.027Z,18.90
2022-09-09T11:26:16.638Z,19.00
2022-09-09T11:29:16.921Z,19.00
2022-09-09T11:32:02.592Z,19.00
2022-09-09T11:34:51.340Z,19.10
2022-09-09T11:37:39.113Z,19.10
2022-09-09T11:40:20.266Z,19.10
2022-09-09T11:42:50.866Z,19.20
2022-09-09T11:45:25.377Z,19.20
2022-09-09T11:47:57.498Z,19.30
2022-09-09T11:50:24.388Z,19.40
2022-09-09T11:52:52.821Z,19.50
2022-09-09T11:55:27.511Z,19.60
2022-09-09T11:58:01.390Z,19.60
2022-09-09T12:00:42.958Z,19.60
2022-09-09T12:03:41.164Z,19.60
2022-09-09T12:06:28.970Z,19.60
2022-09-09T12:09:07.548Z,19.60
2022-09-09T12:11:34.482Z,19.60
2022-09-09T12:14:02.142Z,19.70
2022-09-09T12:16:35.467Z,19.80
2022-09-09T12:19:22.022Z,20.00
2022-09-09T12:22:26.308Z,20.00
2022-09-09T12:25:07.535Z,20.00
2022-09-09T12:28:05.275Z,19.90
2022-09-09T12:30:58.280Z,19.70
2022-09-09T12:33:25.889Z,19.70
2022-09-09T12:35:58.570Z,19.60
2022-09-09T12:38:34.397Z,19.70
2022-09-09T12:41:01.817Z,19.90
2022-09-09T12:43:29.992Z,20.10
2022-09-09T12:46:03.703Z,20.20
2022-09-09T12:48:41.503Z,20.20
2022-09-09T12:51:29.442Z,20.20
2022-09-09T12:53:57.554Z,20.20
2022-09-09T12:56:28.085Z,20.20
2022-09-09T12:58:57.243Z,20.20
2022-09-09T13:01:27.235Z,20.10
2022-09-09T13:03:54.752Z,20.00
2022-09-09T13:06:28.775Z,20.00
2022-09-09T13:09:02.633Z,19.90
2022-09-09T13:11:47.762Z,19.80
2022-09-09T13:14:21.701Z,19.70
2022-09-09T13:17:04.472Z,19.60
2022-09-09T13:19:36.449Z,19.50
2022-09-09T13:22:14.934Z,19.50
2022-09-09T13:24:43.620Z,19.50
2022-09-09T13:27:31.946Z,19.60
2022-09-09T13:29:58.913Z,19.90
2022-09-09T13:32:29.794Z,20.00
2022-09-09T13:35:02.621Z,20.10
2022-09-09T13:37:42.339Z,20.10
2022-09-09T13:40:21.142Z,20.10
2022-09-09T13:42:48.959Z,20.10
2022-09-09T13:45:22.326Z,20.10
2022-09-09T13:47:53.362Z,20.20
2022-09-09T13:50:30.711Z,20.10
2022-09-09T13:52:59.857Z,20.30
2022-09-09T13:55:31.019Z,20.20
2022-09-09T13:58:01.684Z,20.10
2022-09-09T14:00:32.124Z,19.90
2022-09-09T14:02:59.298Z,19.80
2022-09-09T14:05:26.365Z,19.60
2022-09-09T14:07:53.538Z,19.60
2022-09-09T14:10:21.082Z,19.50
2022-09-09T14:12:47.962Z,19.40
2022-09-09T14:15:15.556Z,19.40
2022-09-09T14:17:43.427Z,19.50
2022-09-09T14:20:13.159Z,19.60
2022-09-09T14:22:42.590Z,19.70
2022-09-09T14:25:09.746Z,19.70
2022-09-09T14:27:36.811Z,19.60
2022-09-09T14:30:04.187Z,19.60
2022-09-09T14:32:31.350Z,19.50
2022-09-09T14:34:58.366Z,19.40
2022-09-09T14:37:25.329Z,19.30
2022-09-09T14:39:52.690Z,19.30
2022-09-09T14:42:19.851Z,19.30
2022-09-09T14:44:46.738Z,19.30
2022-09-09T14:47:13.636Z,19.40
2022-09-09T14:49:42.585Z,19.40
2022-09-09T14:52:12.283Z,19.50
2022-09-09T14:54:39.315Z,19.50
2022-09-09T14:57:06.270Z,19.60
2022-09-09T14:59:33.138Z,19.70
2022-09-09T15:02:04.961Z,19.80
2022-09-09T15:04:32.017Z,20.00
2022-09-09T15:06:59.982Z,20.20
2022-09-09T15:09:26.992Z,20.30
2022-09-09T15:11:53.985Z,20.30
2022-09-09T15:14:22.551Z,20.20
2022-09-09T15:16:52.429Z,20.20
2022-09-09T15:19:19.359Z,20.10
2022-09-09T15:21:46.293Z,20.00
2022-09-09T15:24:14.326Z,19.90
2022-09-09T15:26:41.272Z,19.90
2022-09-09T15:29:09.442Z,19.80
2022-09-09T15:31:37.288Z,19.70
2022-09-09T15:34:08.653Z,19.60
2022-09-09T15:36:48.996Z,19.50
2022-09-09T15:39:18.332Z,19.40
2022-09-09T15:41:47.927Z,19.30
2022-09-09T15:44:16.453Z,19.20
2022-09-09T15:46:50.910Z,19.10
2022-09-09T15:49:20.115Z,19.10
2022-09-09T15:51:51.280Z,19.10
2022-09-09T15:54:20.849Z,19.00
2022-09-09T15:56:51.571Z,19.00
2022-09-09T15:59:19.245Z,19.00
2022-09-09T16:01:49.188Z,19.00
2022-09-09T16:04:21.265Z,18.90
2022-09-09T16:06:48.141Z,18.90
2022-09-09T16:09:15.035Z,18.90
2022-09-09T16:11:41.992Z,18.70
2022-09-09T16:14:09.384Z,18.00
2022-09-09T16:16:36.596Z,17.50
2022-09-09T16:19:13.964Z,17.10
2022-09-09T16:21:49.214Z,16.90
2022-09-09T16:24:19.258Z,16.90
2022-09-09T16:26:49.910Z,16.90
2022-09-09T16:29:18.421Z,17.00
2022-09-09T16:31:47.916Z,17.10
2022-09-09T16:34:16.532Z,17.20
2022-09-09T16:36:45.000Z,17.20
2022-09-09T16:39:17.888Z,17.30
2022-09-09T16:41:46.529Z,17.40
2022-09-09T16:44:14.908Z,17.40
2022-09-09T16:46:43.975Z,17.40
2022-09-09T16:49:13.250Z,17.40
2022-09-09T16:51:43.503Z,17.40
2022-09-09T16:54:12.190Z,17.40
2022-09-09T16:56:44.854Z,17.40
2022-09-09T16:59:19.441Z,17.40
2022-09-09T17:01:50.041Z,17.30
2022-09-09T17:04:21.881Z,17.30
2022-09-09T17:06:53.335Z,17.20
2022-09-09T17:09:21.844Z,17.10
2022-09-09T17:11:51.458Z,17.10
2022-09-09T17:14:20.102Z,17.20
2022-09-09T17:16:47.688Z,17.20
2022-09-09T17:19:15.346Z,17.20
2022-09-09T17:22:00.409Z,17.30
2022-09-09T17:24:30.316Z,17.30
2022-09-09T17:27:00.139Z,17.30
2022-09-09T17:29:27.164Z,17.20
2022-09-09T17:31:54.556Z,17.10
2022-09-09T17:34:21.842Z,17.10
2022-09-09T17:36:49.183Z,17.10
2022-09-09T17:39:16.430Z,17.00
2022-09-09T17:41:43.389Z,17.00
2022-09-09T17:44:11.079Z,16.90
2022-09-09T17:46:41.564Z,16.90
2022-09-09T17:49:14.737Z,16.90
2022-09-09T17:51:42.890Z,16.80
2022-09-09T17:54:13.143Z,16.80
2022-09-09T17:56:41.123Z,16.70
2022-09-09T17:59:10.838Z,16.70
2022-09-09T18:01:40.532Z,16.70
2022-09-09T18:04:09.839Z,16.60
2022-09-09T18:06:43.608Z,16.60
2022-09-09T18:09:15.531Z,16.60
2022-09-09T18:11:45.446Z,16.50
2022-09-09T18:14:25.158Z,16.50
2022-09-09T18:16:52.589Z,16.50
2022-09-09T18:19:22.682Z,16.50
2022-09-09T18:21:50.181Z,16.50
2022-09-09T18:24:19.032Z,16.50
2022-09-09T18:26:48.628Z,16.50
2022-09-09T18:29:23.581Z,16.50
2022-09-09T18:31:50.710Z,16.60
2022-09-09T18:34:20.009Z,16.50
2022-09-09T18:36:52.262Z,16.50
2022-09-09T18:39:20.054Z,16.50
2022-09-09T18:41:53.028Z,16.50
2022-09-09T18:44:24.734Z,16.50
2022-09-09T18:46:52.595Z,16.50
2022-09-09T18:49:21.761Z,16.40
2022-09-09T18:51:48.746Z,16.40
2022-09-09T18:54:20.854Z,16.40
2022-09-09T18:56:48.794Z,16.40
2022-09-09T18:59:21.630Z,16.40
2022-09-09T19:01:50.590Z,16.40
2022-09-09T19:04:22.165Z,16.40
2022-09-09T19:06:51.729Z,16.30
2022-09-09T19:09:19.355Z,16.30
2022-09-09T19:11:46.942Z,16.20
2022-09-09T19:14:16.566Z,16.20
2022-09-09T19:16:45.338Z,16.20
2022-09-09T19:19:15.718Z,16.10
2022-09-09T19:21:43.720Z,16.10
2022-09-09T19:24:18.225Z,16.10
2022-09-09T19:26:52.267Z,16.10
2022-09-09T19:29:24.873Z,16.10
2022-09-09T19:32:36.441Z,16.10
2022-09-09T19:34:44.125Z,16.10
2022-09-09T19:37:18.110Z,16.10
2022-09-09T19:39:49.833Z,16.10
2022-09-09T19:42:19.067Z,16.10
2022-09-09T19:44:46.694Z,16.10
2022-09-09T19:47:15.192Z,16.20
2022-09-09T19:49:46.712Z,16.20
2022-09-09T19:52:14.619Z,16.20
2022-09-09T19:54:41.615Z,16.20
2022-09-09T19:57:08.495Z,16.20
2022-09-09T19:59:35.975Z,16.20
2022-09-09T20:02:03.017Z,16.20
2022-09-09T20:04:30.051Z,16.20
2022-09-09T20:06:57.108Z,16.20
2022-09-09T20:09:26.074Z,16.30
2022-09-09T20:11:53.324Z,16.30
2022-09-09T20:14:20.412Z,16.30
2022-09-09T20:16:49.718Z,16.30
2022-09-09T20:19:16.640Z,16.40
2022-09-09T20:21:48.157Z,16.40
2022-09-09T20:24:18.740Z,16.40
2022-09-09T20:26:48.309Z,16.40
2022-09-09T20:29:18.412Z,16.40
2022-09-09T20:31:45.599Z,16.40
2022-09-09T20:34:15.774Z,16.40
2022-09-09T20:36:43.520Z,16.40
2022-09-09T20:39:15.034Z,16.40
2022-09-09T20:41:44.438Z,16.30
2022-09-09T20:44:19.284Z,16.30
2022-09-09T20:46:48.989Z,16.20
2022-09-09T20:49:18.455Z,16.20
2022-09-09T20:51:47.078Z,16.20
2022-09-09T20:54:20.123Z,16.20
2022-09-09T20:56:48.463Z,16.20
2022-09-09T20:59:19.333Z,16.20
2022-09-09T21:01:47.783Z,16.20
2022-09-09T21:04:17.617Z,16.20
2022-09-09T21:06:45.338Z,16.20
2022-09-09T21:09:13.837Z,16.20
2022-09-09T21:11:40.725Z,16.20
2022-09-09T21:14:07.828Z,16.20
2022-09-09T21:16:34.705Z,16.20
2022-09-09T21:19:01.628Z,16.10
2022-09-09T21:21:28.653Z,16.10
2022-09-09T21:23:58.276Z,16.10
2022-09-09T21:26:26.829Z,16.10
2022-09-09T21:28:54.966Z,16.10
2022-09-09T21:31:27.502Z,16.10
2022-09-09T21:33:58.754Z,16.10
2022-09-09T21:36:28.185Z,16.10
2022-09-09T21:38:55.542Z,16.20
2022-09-09T21:41:22.457Z,16.20
2022-09-09T21:43:53.090Z,16.20
2022-09-09T21:46:20.682Z,16.20
2022-09-09T21:48:47.635Z,16.30
2022-09-09T21:51:16.709Z,16.30
2022-09-09T21:53:43.846Z,16.30
2022-09-09T21:56:13.263Z,16.30
2022-09-09T21:58:41.259Z,16.30
2022-09-09T22:01:18.838Z,16.30
2022-09-09T22:03:46.533Z,16.30
2022-09-09T22:06:15.670Z,16.30
2022-09-09T22:08:43.023Z,16.30
2022-09-09T22:11:16.725Z,16.30
2022-09-09T22:13:47.209Z,16.40
2022-09-09T22:16:19.034Z,16.40
2022-09-09T22:18:51.772Z,16.30
2022-09-09T22:21:19.187Z,16.40
2022-09-09T22:23:53.039Z,16.30
2022-09-09T22:26:20.489Z,16.30
2022-09-09T22:28:49.790Z,16.20
2022-09-09T22:31:16.774Z,16.20
2022-09-09T22:33:43.687Z,16.10
2022-09-09T22:36:10.568Z,16.00
2022-09-09T22:38:37.767Z,16.00
2022-09-09T22:41:06.288Z,15.90
2022-09-09T22:43:34.023Z,15.90
2022-09-09T22:46:02.324Z,15.90
2022-09-09T22:48:37.299Z,15.80
2022-09-09T22:51:10.440Z,15.90
2022-09-09T22:53:39.088Z,15.80
2022-09-09T22:56:08.172Z,15.80
2022-09-09T22:58:38.004Z,15.80
2022-09-09T23:01:14.766Z,15.70
2022-09-09T23:03:42.424Z,15.70
2022-09-09T23:06:17.963Z,15.70
2022-09-09T23:08:46.583Z,15.70
2022-09-09T23:11:14.354Z,15.70
2022-09-09T23:13:46.917Z,15.70
2022-09-09T23:16:18.949Z,15.70
2022-09-09T23:18:46.039Z,15.70
2022-09-09T23:21:14.893Z,15.60
2022-09-09T23:23:43.178Z,15.60
2022-09-09T23:26:12.408Z,15.60
2022-09-09T23:28:43.748Z,15.60
2022-09-09T23:31:13.499Z,15.60
2022-09-09T23:33:41.352Z,15.60
2022-09-09T23:36:11.548Z,15.60
2022-09-09T23:38:40.212Z,15.60
2022-09-09T23:41:09.696Z,15.70
2022-09-09T23:43:39.784Z,15.70
2022-09-09T23:46:12.102Z,15.70
2022-09-09T23:48:39.534Z,15.80
2022-09-09T23:51:18.581Z,15.80
2022-09-09T23:53:50.990Z,15.80
2022-09-09T23:56:19.042Z,15.90
2022-09-09T23:58:46.897Z,15.90
